createdAt,value
2023-01-28T00:02:07.344Z,0.63
2023-01-28T00:06:13.365Z,0.61
2023-01-28T00:10:15.907Z,0.52
2023-01-28T00:14:17.911Z,0.50
2023-01-28T00:18:20.129Z,0.51
2023-01-28T00:22:22.443Z,0.56
2023-01-28T00:26:25.410Z,0.60
2023-01-28T00:30:27.421Z,0.62
2023-01-28T00:34:29.501Z,0.59
2023-01-28T00:38:31.521Z,0.58
2023-01-28T00:42:34.113Z,0.58
2023-01-28T00:46:36.217Z,0.54
2023-01-28T00:50:39.355Z,0.53
2023-01-28T00:54:41.378Z,0.57
2023-01-28T00:58:44.026Z,0.47
2023-01-28T01:02:47.535Z,0.30
2023-01-28T01:06:49.605Z,0.20
2023-01-28T01:10:51.611Z,0.16
2023-01-28T01:14:53.644Z,0.12
2023-01-28T01:18:56.607Z,0.12
2023-01-28T01:22:58.794Z,0.06
2023-01-28T01:27:02.076Z,-0.06
2023-01-28T01:31:10.622Z,-0.12
2023-01-28T01:35:13.091Z,-0.23
2023-01-28T01:39:15.407Z,-0.32
2023-01-28T01:43:19.954Z,-0.41
2023-01-28T01:47:26.543Z,-0.36
2023-01-28T01:51:32.655Z,-0.26
2023-01-28T01:55:38.243Z,-0.14
2023-01-28T01:59:42.446Z,-0.09
2023-01-28T02:03:56.657Z,-0.07
2023-01-28T02:08:19.655Z,-0.05
2023-01-28T02:12:27.082Z,-0.02
2023-01-28T02:16:30.962Z,-0.03
2023-01-28T02:20:51.274Z,0.09
2023-01-28T02:25:26.832Z,0.17
2023-01-28T02:29:41.999Z,0.05
2023-01-28T02:34:11.231Z,0.09
2023-01-28T02:38:21.330Z,0.11
2023-01-28T02:42:41.900Z,0.20
2023-01-28T02:47:02.716Z,0.29
2023-01-28T02:51:32.609Z,0.20
2023-01-28T02:55:53.705Z,0.19
2023-01-28T03:00:04.131Z,0.16
2023-01-28T03:04:20.720Z,0.04
2023-01-28T03:08:43.582Z,0.10
2023-01-28T03:13:09.712Z,0.08
2023-01-28T03:17:37.905Z,0.05
2023-01-28T03:22:01.187Z,0.05
2023-01-28T03:26:27.530Z,0.11
2023-01-28T03:31:08.184Z,0.11
2023-01-28T03:35:39.034Z,0.06
2023-01-28T03:39:41.352Z,0.05
2023-01-28T03:43:45.527Z,-0.01
2023-01-28T03:47:47.931Z,-0.04
2023-01-28T03:51:50.762Z,-0.11
2023-01-28T03:55:54.701Z,-0.04
2023-01-28T03:59:56.816Z,-0.05
2023-01-28T04:03:59.126Z,-0.11
2023-01-28T04:08:02.829Z,-0.19
2023-01-28T04:12:30.812Z,-0.18
2023-01-28T04:16:32.953Z,-0.24
2023-01-28T04:20:36.034Z,-0.10
2023-01-28T04:24:38.456Z,-0.11
2023-01-28T04:28:40.563Z,-0.11
2023-01-28T04:32:42.646Z,-0.10
2023-01-28T04:37:03.161Z,-0.10
2023-01-28T04:41:20.966Z,-0.08
2023-01-28T04:45:24.193Z,-0.07
2023-01-28T04:49:36.312Z,-0.20
2023-01-28T04:53:49.431Z,-0.15
2023-01-28T04:58:04.257Z,-0.12
2023-01-28T05:02:08.000Z,-0.18
2023-01-28T05:06:10.429Z,-0.19
2023-01-28T05:10:19.322Z,-0.10
2023-01-28T05:14:21.436Z,-0.07
2023-01-28T05:18:30.375Z,0.03
2023-01-28T05:22:48.089Z,-0.01
2023-01-28T05:27:03.162Z,0.04
2023-01-28T05:31:06.905Z,0.07
2023-01-28T05:35:09.402Z,-0.01
2023-01-28T05:39:11.503Z,-0.10
2023-01-28T05:43:14.535Z,-0.18
2023-01-28T05:47:36.403Z,-0.33
2023-01-28T05:51:57.040Z,-0.36
2023-01-28T05:55:59.891Z,-0.27
2023-01-28T06:00:05.564Z,-0.28
2023-01-28T06:04:18.889Z,-0.23
2023-01-28T06:08:21.156Z,-0.36
2023-01-28T06:12:23.458Z,-0.32
2023-01-28T06:16:45.530Z,-0.37
2023-01-28T06:21:06.180Z,-0.37
2023-01-28T06:25:08.654Z,-0.33
2023-01-28T06:29:10.725Z,-0.30
2023-01-28T06:33:12.765Z,-0.26
2023-01-28T06:37:15.427Z,-0.30
2023-01-28T06:41:17.516Z,-0.30
2023-01-28T06:45:19.627Z,-0.36
2023-01-28T06:49:22.004Z,-0.37
2023-01-28T06:53:24.265Z,-0.27
2023-01-28T06:57:26.256Z,-0.27
2023-01-28T07:01:28.374Z,-0.29
2023-01-28T07:05:30.503Z,-0.32
2023-01-28T07:09:32.480Z,-0.26
2023-01-28T07:13:34.632Z,-0.30
2023-01-28T07:17:40.814Z,-0.34
2023-01-28T07:21:42.815Z,-0.38
2023-01-28T07:25:44.817Z,-0.42
2023-01-28T07:29:46.833Z,-0.35
2023-01-28T07:33:48.891Z,-0.43
2023-01-28T07:37:55.508Z,-0.43
2023-01-28T07:41:57.525Z,-0.44
2023-01-28T07:46:13.154Z,-0.44
2023-01-28T07:50:16.113Z,-0.47
2023-01-28T07:54:18.354Z,-0.54
2023-01-28T07:58:20.430Z,-0.60
2023-01-28T08:02:22.485Z,-0.55
2023-01-28T08:06:24.601Z,-0.46
2023-01-28T08:10:26.652Z,-0.42
2023-01-28T08:14:28.782Z,-0.38
2023-01-28T08:18:30.813Z,-0.34
2023-01-28T08:22:32.796Z,-0.07
2023-01-28T08:26:34.880Z,-0.18
2023-01-28T08:30:38.809Z,-0.28
2023-01-28T08:34:40.900Z,-0.25
2023-01-28T08:38:43.445Z,-0.37
2023-01-28T08:42:50.071Z,-0.43
2023-01-28T08:46:52.064Z,-0.48
2023-01-28T08:50:58.681Z,-0.34
2023-01-28T08:55:00.735Z,-0.33
2023-01-28T08:59:02.773Z,-0.19
2023-01-28T09:03:06.342Z,-0.15
2023-01-28T09:07:08.632Z,-0.21
2023-01-28T09:11:10.643Z,-0.18
2023-01-28T09:15:12.911Z,-0.24
2023-01-28T09:19:15.793Z,-0.31
2023-01-28T09:23:18.075Z,-0.32
2023-01-28T09:27:20.160Z,-0.41
2023-01-28T09:31:22.556Z,-0.48
2023-01-28T09:35:24.716Z,-0.43
2023-01-28T09:39:28.440Z,-0.32
2023-01-28T09:43:54.450Z,-0.18
2023-01-28T09:48:00.600Z,-0.18
2023-01-28T09:52:03.440Z,-0.39
2023-01-28T09:56:11.496Z,-0.43
2023-01-28T10:00:20.182Z,-0.40
2023-01-28T10:04:40.965Z,-0.42
2023-01-28T10:08:42.952Z,-0.40
2023-01-28T10:13:07.600Z,-0.30
2023-01-28T10:17:28.528Z,-0.30
2023-01-28T10:21:40.759Z,-0.19
2023-01-28T10:25:45.114Z,-0.12
2023-01-28T10:29:49.948Z,-0.06
2023-01-28T10:33:52.009Z,-0.06
2023-01-28T10:38:01.590Z,-0.04
2023-01-28T10:42:17.679Z,0.02
2023-01-28T10:46:24.638Z,0.05
2023-01-28T10:50:28.368Z,0.18
2023-01-28T10:54:30.271Z,0.04
2023-01-28T10:58:36.358Z,0.01
2023-01-28T11:02:38.425Z,-0.02
2023-01-28T11:06:40.486Z,0.09
2023-01-28T11:10:43.824Z,0.20
2023-01-28T11:14:57.827Z,0.22
2023-01-28T11:19:04.886Z,0.20
2023-01-28T11:23:07.098Z,-0.13
2023-01-28T11:27:16.449Z,-0.31
2023-01-28T11:31:21.319Z,-0.50
2023-01-28T11:35:30.912Z,-0.54
2023-01-28T11:39:33.106Z,-0.33
2023-01-28T11:43:35.286Z,-0.35
2023-01-28T11:48:04.439Z,-0.34
2023-01-28T11:52:48.652Z,-0.24
2023-01-28T11:57:24.391Z,-0.29
2023-01-28T12:01:52.453Z,-0.16
2023-01-28T12:06:03.833Z,-0.02
2023-01-28T12:10:20.176Z,0.10
2023-01-28T12:14:36.460Z,0.04
2023-01-28T12:18:59.974Z,0.08
2023-01-28T12:23:31.347Z,0.27
2023-01-28T12:28:03.293Z,0.43
2023-01-28T12:32:50.503Z,0.69
2023-01-28T12:37:05.131Z,0.65
2023-01-28T12:41:27.829Z,0.33
2023-01-28T12:45:40.566Z,0.23
2023-01-28T12:49:48.428Z,0.28
2023-01-28T12:53:57.135Z,0.12
2023-01-28T12:57:59.459Z,0.16
2023-01-28T13:02:13.846Z,-0.05
2023-01-28T13:06:24.034Z,-0.05
2023-01-28T13:10:40.669Z,0.13
2023-01-28T13:14:44.411Z,0.13
2023-01-28T13:18:46.905Z,-0.07
2023-01-28T13:23:01.626Z,-0.06
2023-01-28T13:27:21.662Z,-0.04
2023-01-28T13:31:24.409Z,0.06
2023-01-28T13:35:34.311Z,0.15
2023-01-28T13:39:37.015Z,0.22
2023-01-28T13:43:42.150Z,0.22
2023-01-28T13:47:48.132Z,0.34
2023-01-28T13:52:17.717Z,0.46
2023-01-28T13:56:28.612Z,0.44
2023-01-28T14:01:11.683Z,0.45
2023-01-28T14:05:36.821Z,0.63
2023-01-28T14:09:48.091Z,0.54
2023-01-28T14:14:21.647Z,0.41
2023-01-28T14:18:32.582Z,0.47
2023-01-28T14:22:36.091Z,0.49
2023-01-28T14:26:50.554Z,0.41
2023-01-28T14:31:02.337Z,0.29
2023-01-28T14:35:09.748Z,0.23
2023-01-28T14:39:27.164Z,-0.17
2023-01-28T14:43:31.367Z,-0.24
2023-01-28T14:47:36.500Z,-0.31
2023-01-28T14:52:15.078Z,-0.40
2023-01-28T14:56:26.235Z,-0.44
2023-01-28T15:00:31.060Z,-0.59
2023-01-28T15:04:35.749Z,-0.59
2023-01-28T15:08:40.111Z,-0.59
2023-01-28T15:12:47.824Z,-0.71
2023-01-28T15:16:50.626Z,-0.80
2023-01-28T15:20:55.144Z,-0.81
2023-01-28T15:24:57.446Z,-0.88
2023-01-28T15:29:00.430Z,-0.91
2023-01-28T15:33:05.867Z,-0.89
2023-01-28T15:37:10.877Z,-0.95
2023-01-28T15:41:13.089Z,-0.98
2023-01-28T15:45:21.133Z,-1.05
2023-01-28T15:49:27.434Z,-1.14
2023-01-28T15:53:34.781Z,-1.14
2023-01-28T15:57:36.846Z,-1.18
2023-01-28T16:01:38.938Z,-1.16
2023-01-28T16:05:42.737Z,-1.25
2023-01-28T16:09:50.836Z,-1.34
2023-01-28T16:13:53.741Z,-1.35
2023-01-28T16:17:55.803Z,-1.35
2023-01-28T16:21:58.071Z,-1.45
2023-01-28T16:26:24.389Z,-1.55
2023-01-28T16:30:26.891Z,-1.57
2023-01-28T16:34:29.066Z,-1.72
2023-01-28T16:38:31.236Z,-1.82
2023-01-28T16:42:33.471Z,-1.78
2023-01-28T16:46:35.588Z,-1.68
2023-01-28T16:50:42.536Z,-1.50
2023-01-28T16:54:47.556Z,-1.30
2023-01-28T16:58:49.638Z,-1.14
2023-01-28T17:02:53.337Z,-1.16
2023-01-28T17:06:55.453Z,-1.07
2023-01-28T17:10:57.590Z,-1.01
2023-01-28T17:14:59.704Z,-1.04
2023-01-28T17:19:01.918Z,-1.04
2023-01-28T17:23:06.136Z,-0.98
2023-01-28T17:27:09.708Z,-1.02
2023-01-28T17:31:14.084Z,-1.12
2023-01-28T17:35:16.774Z,-1.17
2023-01-28T17:39:19.087Z,-1.28
2023-01-28T17:43:21.294Z,-1.45
2023-01-28T17:47:23.384Z,-1.55
2023-01-28T17:51:25.488Z,-1.54
2023-01-28T17:55:27.705Z,-1.48
2023-01-28T17:59:29.938Z,-1.41
2023-01-28T18:03:32.067Z,-1.38
2023-01-28T18:07:34.503Z,-1.41
2023-01-28T18:11:36.672Z,-1.55
2023-01-28T18:15:38.740Z,-1.49
2023-01-28T18:19:40.861Z,-1.34
2023-01-28T18:23:44.039Z,-1.24
2023-01-28T18:27:46.328Z,-1.06
2023-01-28T18:31:48.849Z,-1.01
2023-01-28T18:35:51.099Z,-0.99
2023-01-28T18:39:53.281Z,-0.95
2023-01-28T18:43:55.426Z,-0.79
2023-01-28T18:47:57.508Z,-0.66
2023-01-28T18:51:59.800Z,-0.56
2023-01-28T18:56:06.611Z,-0.49
2023-01-28T19:00:09.388Z,-0.39
2023-01-28T19:04:11.656Z,-0.46
2023-01-28T19:08:13.806Z,-0.50
2023-01-28T19:12:15.910Z,-0.53
2023-01-28T19:16:18.763Z,-0.59
2023-01-28T19:20:20.919Z,-0.64
2023-01-28T19:24:23.121Z,-0.67
2023-01-28T19:28:25.417Z,-0.76
2023-01-28T19:32:27.925Z,-0.79
2023-01-28T19:36:33.096Z,-0.70
2023-01-28T19:40:40.187Z,-0.71
2023-01-28T19:44:42.287Z,-0.81
2023-01-28T19:48:45.481Z,-0.91
2023-01-28T19:52:47.651Z,-1.01
2023-01-28T19:56:49.820Z,-1.12
2023-01-28T20:00:51.938Z,-1.13
2023-01-28T20:05:00.610Z,-1.14
2023-01-28T20:09:13.943Z,-1.24
2023-01-28T20:13:16.275Z,-1.34
2023-01-28T20:17:18.528Z,-1.48
2023-01-28T20:21:21.856Z,-1.58
2023-01-28T20:25:23.925Z,-1.63
2023-01-28T20:29:26.143Z,-1.55
2023-01-28T20:33:28.621Z,-1.51
2023-01-28T20:37:30.826Z,-1.37
2023-01-28T20:41:32.923Z,-1.37
2023-01-28T20:45:35.560Z,-1.33
2023-01-28T20:49:38.315Z,-1.17
2023-01-28T20:53:41.070Z,-1.09
2023-01-28T20:57:44.993Z,-1.01
2023-01-28T21:01:47.333Z,-1.05
2023-01-28T21:05:50.044Z,-1.01
2023-01-28T21:09:52.568Z,-1.07
2023-01-28T21:13:55.557Z,-1.06
2023-01-28T21:17:58.006Z,-1.14
2023-01-28T21:22:00.095Z,-1.21
2023-01-28T21:26:04.712Z,-1.24
2023-01-28T21:30:07.639Z,-1.45
2023-01-28T21:34:10.445Z,-1.57
2023-01-28T21:38:12.622Z,-1.62
2023-01-28T21:42:15.692Z,-1.69
2023-01-28T21:46:17.776Z,-1.77
2023-01-28T21:50:20.691Z,-1.67
2023-01-28T21:54:22.775Z,-1.62
2023-01-28T21:58:43.533Z,-1.51
2023-01-28T22:02:45.649Z,-1.44
2023-01-28T22:06:49.293Z,-1.49
2023-01-28T22:10:51.464Z,-1.49
2023-01-28T22:14:53.605Z,-1.48
2023-01-28T22:18:55.717Z,-1.43
2023-01-28T22:22:57.758Z,-1.36
2023-01-28T22:26:59.957Z,-1.36
2023-01-28T22:31:10.133Z,-1.31
2023-01-28T22:35:12.303Z,-1.32
2023-01-28T22:39:16.213Z,-1.33
2023-01-28T22:43:18.377Z,-1.23
2023-01-28T22:47:20.469Z,-1.24
2023-01-28T22:51:25.589Z,-1.12
2023-01-28T22:55:27.988Z,-0.99
2023-01-28T22:59:30.128Z,-0.98
2023-01-28T23:03:33.018Z,-0.96
2023-01-28T23:07:35.219Z,-0.99
2023-01-28T23:11:37.354Z,-1.24
2023-01-28T23:15:58.046Z,-1.28
2023-01-28T23:20:18.616Z,-1.22
2023-01-28T23:24:21.366Z,-1.13
2023-01-28T23:28:23.621Z,-1.25
2023-01-28T23:32:26.420Z,-1.50
2023-01-28T23:36:28.568Z,-1.54
2023-01-28T23:40:30.659Z,-1.48
2023-01-28T23:44:32.663Z,-1.43
2023-01-28T23:48:34.673Z,-1.55
2023-01-28T23:52:36.768Z,-1.64
2023-01-28T23:56:39.351Z,-1.58
